Overview Statistics Trail Chart Weather Telemetry Raw packets
 

This is the latest recevied weather packets stored in our database for station/object WA1TYB-13. If no packets are shown the sender has not sent any weather packets the latest 10 day(s).

<< 87 88 89 90 91 92 93 >>
Time Temp. Humidity Pressure Rain* Wind** Luminosity Snow
1787967603 20° C 58% 1014.8 hPa 0 mm - 26 W/m² -
1787967298 21.11° C 54% 1014.7 hPa 0 mm - 36 W/m² -
1787966994 20° C 55% 1014.8 hPa 1.78 mm - 40 W/m² -
1787966691 20° C 60% 1015 hPa 3.56 mm - 36 W/m² -
1787966390 21.11° C 55% 1015.1 hPa 1.78 mm - 19 W/m² -
1787966085 21.67° C 53% 1015.7 hPa 0 mm - 6 W/m² -
1787965784 21.67° C 48% 1015.3 hPa 0 mm - 1 W/m² -
1787965479 20.56° C 56% 1014.5 hPa 0 mm - 2 W/m² -
1787965178 21.67° C 52% 1014.4 hPa 0 mm - 5 W/m² -
1787964873 21.67° C 48% 1014 hPa 0 mm - 10 W/m² -
1787964568 21.67° C 49% 1014.4 hPa 0 mm - 16 W/m² -
1787964264 21.67° C 47% 1014.2 hPa 0 mm - 27 W/m² -
1787963962 21.11° C 49% 1014.3 hPa 0 mm - 29 W/m² -
1787963658 21.11° C 49% 1014.3 hPa 0 mm - 44 W/m² -
1787963357 21.11° C 50% 1014.2 hPa 0 mm - 59 W/m² -
1787963054 21.11° C 52% 1014.2 hPa 0 mm - 88 W/m² -
1787962752 21.11° C 52% 1014.9 hPa 0 mm - 175 W/m² -
1787962452 22.22° C 48% 1015.1 hPa 0 mm - 165 W/m² -
1787962150 22.22° C 45% 1014.9 hPa 0 mm - 80 W/m² -
1787961845 22.22° C 43% 1015.1 hPa 0 mm - 81 W/m² -
1787961544 22.78° C 40% 1015.1 hPa 0 mm - 55 W/m² -
1787961244 20.56° C 39% 1015.1 hPa 0 mm - 39 W/m² -
1787960943 20.56° C 43% 1015.1 hPa 4.32 mm - 32 W/m² -
1787960639 19.44° C 51% 1015.2 hPa 16.26 mm - 29 W/m² -
1787960336 21.67° C 46% 1015.2 hPa 18.03 mm - 28 W/m² -

* Rain latest hour (hover to see other rain measurements)
** Current wind speed in m/s (hover to see current wind gust speed)